Terminal Aerodrome Forecast
Issued by NWS

Home | Current Version | Previous Version | Text Only | Print | Product List | Glossary On
Versions: 1 2 3 4 5 6 7 8 9 10 11 12 13 14
000
FTUS41 KBOX 172320
TAFBAF
TAF
KBAF 172320Z 1800/1824 00000KT P6SM OVC120
     FM180400 00000KT P6SM VCSH OVC090
     FM180700 00000KT 3SM -SN OVC025
     FM181000 00000KT 3SM BR VCSH OVC020
     FM181300 00000KT P6SM OVC015
     FM182200 20004KT P6SM OVC035=

USA.gov is the U.S. government's official web portal to all federal, state and local government web resources and services.